createdAt,value
2022-12-08T00:00:20.506Z,949.03
2022-12-08T00:01:22.472Z,949.02
2022-12-08T00:02:24.648Z,949
2022-12-08T00:03:26.712Z,948.98
2022-12-08T00:04:28.470Z,949
2022-12-08T00:05:30.512Z,949.03
2022-12-08T00:06:32.471Z,949.05
2022-12-08T00:07:35.558Z,949.04
2022-12-08T00:08:37.464Z,949.02
2022-12-08T00:09:39.901Z,948.99
2022-12-08T00:10:49.042Z,948.99
2022-12-08T00:11:43.473Z,948.96
2022-12-08T00:12:45.482Z,948.97
2022-12-08T00:13:48.472Z,948.96
2022-12-08T00:14:50.470Z,948.94
2022-12-08T00:15:52.653Z,948.94
2022-12-08T00:16:54.727Z,948.94
2022-12-08T00:17:56.477Z,948.92
2022-12-08T00:18:58.472Z,948.89
2022-12-08T00:20:01.246Z,948.92
2022-12-08T00:21:02.514Z,948.93
2022-12-08T00:22:05.496Z,948.86
2022-12-08T00:23:08.477Z,948.86
2022-12-08T00:24:10.480Z,948.86
2022-12-08T00:25:12.482Z,948.89
2022-12-08T00:26:14.491Z,948.88
2022-12-08T00:27:16.480Z,948.87
2022-12-08T00:28:18.517Z,948.91
2022-12-08T00:29:20.545Z,948.86
2022-12-08T00:30:22.479Z,948.87
2022-12-08T00:31:24.524Z,948.91
2022-12-08T00:32:26.485Z,948.91
2022-12-08T00:33:28.488Z,948.87
2022-12-08T00:34:30.488Z,948.83
2022-12-08T00:35:32.496Z,948.83
2022-12-08T00:36:34.554Z,948.81
2022-12-08T00:37:37.485Z,948.87
2022-12-08T00:38:39.673Z,948.82
2022-12-08T00:39:41.491Z,948.84
2022-12-08T00:40:43.490Z,948.82
2022-12-08T00:41:45.495Z,948.8
2022-12-08T00:42:48.493Z,948.83
2022-12-08T00:43:50.501Z,948.79
2022-12-08T00:44:52.493Z,948.8
2022-12-08T00:45:54.553Z,948.81
2022-12-08T00:46:57.488Z,948.79
2022-12-08T00:47:59.513Z,948.76
2022-12-08T00:49:01.507Z,948.76
2022-12-08T00:50:03.885Z,948.76
2022-12-08T00:51:05.535Z,948.74
2022-12-08T00:52:09.495Z,948.75
2022-12-08T00:53:12.490Z,948.76
2022-12-08T00:54:14.496Z,948.74
2022-12-08T00:55:16.501Z,948.79
2022-12-08T00:56:18.499Z,948.8
2022-12-08T00:57:20.502Z,948.82
2022-12-08T00:58:22.508Z,948.79
2022-12-08T00:59:24.504Z,948.81
2022-12-08T01:00:26.500Z,948.78
2022-12-08T01:01:28.577Z,948.76
2022-12-08T01:02:30.501Z,948.78
2022-12-08T01:03:33.571Z,948.77
2022-12-08T01:04:35.505Z,948.74
2022-12-08T01:05:37.512Z,948.77
2022-12-08T01:06:39.503Z,948.75
2022-12-08T01:07:41.579Z,948.76
2022-12-08T01:08:43.511Z,948.77
2022-12-08T01:09:45.504Z,948.8
2022-12-08T01:10:47.494Z,948.76
2022-12-08T01:11:49.581Z,948.78
2022-12-08T01:12:52.551Z,948.74
2022-12-08T01:13:54.516Z,948.69
2022-12-08T01:15:00.749Z,948.67
2022-12-08T01:15:58.501Z,948.71
2022-12-08T01:17:01.218Z,948.69
2022-12-08T01:18:16.285Z,948.7
2022-12-08T01:19:05.560Z,948.73
2022-12-08T01:20:08.561Z,948.71
2022-12-08T01:21:10.517Z,948.71
2022-12-08T01:22:12.514Z,948.73
2022-12-08T01:23:14.509Z,948.69
2022-12-08T01:24:16.506Z,948.75
2022-12-08T01:25:18.537Z,948.76
2022-12-08T01:26:20.514Z,948.75
2022-12-08T01:27:22.515Z,948.73
2022-12-08T01:28:24.548Z,948.74
2022-12-08T01:29:26.515Z,948.69
2022-12-08T01:31:30.517Z,948.69
2022-12-08T01:32:32.524Z,948.66
2022-12-08T01:33:34.537Z,948.64
2022-12-08T01:34:36.522Z,948.65
2022-12-08T01:35:38.560Z,948.67
2022-12-08T01:36:40.525Z,948.7
2022-12-08T01:37:42.521Z,948.68
2022-12-08T01:38:44.569Z,948.69
2022-12-08T01:39:46.528Z,948.67
2022-12-08T01:40:48.529Z,948.71
2022-12-08T01:41:50.525Z,948.63
2022-12-08T01:42:52.552Z,948.68
2022-12-08T01:43:54.526Z,948.67
2022-12-08T01:44:56.526Z,948.67
2022-12-08T01:45:58.603Z,948.67
2022-12-08T01:47:01.198Z,948.67
2022-12-08T01:48:02.656Z,948.64
2022-12-08T01:49:05.560Z,948.64
2022-12-08T01:50:08.530Z,948.63
2022-12-08T01:51:10.573Z,948.63
2022-12-08T01:52:12.536Z,948.64
2022-12-08T01:53:14.568Z,948.65
2022-12-08T01:54:16.552Z,948.67
2022-12-08T01:55:18.542Z,948.64
2022-12-08T01:56:20.552Z,948.61
2022-12-08T01:57:22.537Z,948.62
2022-12-08T01:58:24.565Z,948.62
2022-12-08T01:59:26.532Z,948.61
2022-12-08T02:00:28.537Z,948.6
2022-12-08T02:01:30.581Z,948.6
2022-12-08T02:02:32.581Z,948.62
2022-12-08T02:03:34.570Z,948.6
2022-12-08T02:04:36.539Z,948.6
2022-12-08T02:05:38.545Z,948.56
2022-12-08T02:06:40.625Z,948.55
2022-12-08T02:07:42.624Z,948.52
2022-12-08T02:08:44.549Z,948.5
2022-12-08T02:09:46.544Z,948.51
2022-12-08T02:10:48.551Z,948.51
2022-12-08T02:11:50.565Z,948.52
2022-12-08T02:12:52.548Z,948.5
2022-12-08T02:13:54.546Z,948.48
2022-12-08T02:14:58.407Z,948.47
2022-12-08T02:15:59.635Z,948.46
2022-12-08T02:17:01.578Z,948.49
2022-12-08T02:18:03.549Z,948.48
2022-12-08T02:19:29.722Z,948.45
2022-12-08T02:20:09.557Z,948.45
2022-12-08T02:21:11.549Z,948.44
2022-12-08T02:22:13.648Z,948.44
2022-12-08T02:23:15.566Z,948.43
2022-12-08T02:24:17.555Z,948.44
2022-12-08T02:25:19.549Z,948.41
2022-12-08T02:26:21.552Z,948.41
2022-12-08T02:27:23.600Z,948.38
2022-12-08T02:28:25.560Z,948.43
2022-12-08T02:29:27.569Z,948.38
2022-12-08T02:30:30.564Z,948.38
2022-12-08T02:31:32.569Z,948.38
2022-12-08T02:32:34.596Z,948.36
2022-12-08T02:33:36.566Z,948.35
2022-12-08T02:34:38.563Z,948.31
2022-12-08T02:35:40.564Z,948.33
2022-12-08T02:36:42.576Z,948.3
2022-12-08T02:37:44.655Z,948.26
2022-12-08T02:38:46.560Z,948.28
2022-12-08T02:39:48.606Z,948.28
2022-12-08T02:40:50.569Z,948.28
2022-12-08T02:41:52.566Z,948.25
2022-12-08T02:42:54.589Z,948.23
2022-12-08T02:43:57.572Z,948.21
2022-12-08T02:44:59.563Z,948.23
2022-12-08T02:46:01.608Z,948.18
2022-12-08T02:47:03.570Z,948.22
2022-12-08T02:48:07.591Z,948.19
2022-12-08T02:49:09.567Z,948.17
2022-12-08T02:50:11.619Z,948.16
2022-12-08T02:51:13.574Z,948.17
2022-12-08T02:52:15.579Z,948.17
2022-12-08T02:53:17.615Z,948.15
2022-12-08T02:54:19.586Z,948.15
2022-12-08T02:55:21.647Z,948.14
2022-12-08T02:56:23.570Z,948.11
2022-12-08T02:57:25.575Z,948.14
2022-12-08T02:58:27.570Z,948.15
2022-12-08T02:59:29.584Z,948.06
2022-12-08T03:00:31.595Z,948.07
2022-12-08T03:01:33.629Z,948.03
2022-12-08T03:02:35.667Z,948.06
2022-12-08T03:03:37.578Z,948.03
2022-12-08T03:04:39.624Z,948.02
2022-12-08T03:05:41.612Z,948.05
2022-12-08T03:06:43.580Z,948.04
2022-12-08T03:07:45.659Z,948.04
2022-12-08T03:08:48.591Z,948.05
2022-12-08T03:09:50.639Z,948.08
2022-12-08T03:10:52.621Z,948.03
2022-12-08T03:11:54.614Z,948.06
2022-12-08T03:12:56.582Z,948
2022-12-08T03:13:58.581Z,947.99
2022-12-08T03:15:01.136Z,947.99
2022-12-08T03:16:03.687Z,947.95
2022-12-08T03:17:05.598Z,947.97
2022-12-08T03:18:08.627Z,947.95
2022-12-08T03:19:10.587Z,947.95
2022-12-08T03:21:14.638Z,947.95
2022-12-08T03:22:16.590Z,947.92
2022-12-08T03:23:18.617Z,947.95
2022-12-08T03:24:20.592Z,947.93
2022-12-08T03:26:24.631Z,947.95
2022-12-08T03:27:27.597Z,947.93
2022-12-08T03:28:29.619Z,947.91
2022-12-08T03:29:31.593Z,947.94
2022-12-08T03:30:33.613Z,947.92
2022-12-08T03:31:35.708Z,947.92
2022-12-08T03:32:37.599Z,947.93
2022-12-08T03:33:39.643Z,947.91
2022-12-08T03:34:41.593Z,947.87
2022-12-08T03:35:43.606Z,947.87
2022-12-08T03:36:45.606Z,947.88
2022-12-08T03:37:47.601Z,947.9
2022-12-08T03:38:49.881Z,947.85
2022-12-08T03:39:51.604Z,947.85
2022-12-08T03:40:53.604Z,947.85
2022-12-08T03:41:55.629Z,947.86
2022-12-08T03:42:58.598Z,947.83
2022-12-08T03:44:01.137Z,947.8
2022-12-08T03:45:03.602Z,947.81
2022-12-08T03:46:07.655Z,947.81
2022-12-08T03:47:09.648Z,947.79
2022-12-08T03:48:11.608Z,947.79
2022-12-08T03:49:13.614Z,947.76
2022-12-08T03:50:16.621Z,947.72
2022-12-08T03:51:18.638Z,947.75
2022-12-08T03:52:20.636Z,947.73
2022-12-08T03:53:22.607Z,947.75
2022-12-08T03:54:24.613Z,947.73
2022-12-08T03:55:26.612Z,947.71
2022-12-08T03:56:28.617Z,947.71
2022-12-08T03:57:30.638Z,947.69
2022-12-08T03:58:37.450Z,947.68
2022-12-08T03:59:35.668Z,947.63
2022-12-08T04:00:38.602Z,947.68
2022-12-08T04:01:40.704Z,947.67
2022-12-08T04:02:42.644Z,947.69
2022-12-08T04:03:44.615Z,947.66
2022-12-08T04:04:46.630Z,947.68
2022-12-08T04:05:48.622Z,947.66
2022-12-08T04:06:50.657Z,947.66
2022-12-08T04:07:52.658Z,947.64
2022-12-08T04:08:55.621Z,947.67
2022-12-08T04:09:57.624Z,947.66
2022-12-08T04:10:59.654Z,947.63
2022-12-08T04:12:01.641Z,947.64
2022-12-08T04:13:03.629Z,947.62
2022-12-08T04:14:09.620Z,947.63
2022-12-08T04:15:11.613Z,947.58
2022-12-08T04:16:13.761Z,947.58
2022-12-08T04:17:16.675Z,947.56
2022-12-08T04:18:18.621Z,947.55
2022-12-08T04:19:20.622Z,947.55
2022-12-08T04:20:22.631Z,947.56
2022-12-08T04:21:24.631Z,947.54
2022-12-08T04:22:27.652Z,947.52
2022-12-08T04:23:29.625Z,947.53
2022-12-08T04:24:31.630Z,947.55
2022-12-08T04:25:33.701Z,947.51
2022-12-08T04:27:37.656Z,947.54
2022-12-08T04:28:39.627Z,947.54
2022-12-08T04:29:41.637Z,947.52
2022-12-08T04:30:43.632Z,947.53
2022-12-08T04:31:45.963Z,947.54
2022-12-08T04:32:47.795Z,947.48
2022-12-08T04:33:49.921Z,947.48
2022-12-08T04:34:51.627Z,947.51
2022-12-08T04:35:53.656Z,947.48
2022-12-08T04:36:55.648Z,947.48
2022-12-08T04:37:57.637Z,947.49
2022-12-08T04:38:59.643Z,947.45
2022-12-08T04:40:01.811Z,947.43
2022-12-08T04:41:03.670Z,947.44
2022-12-08T04:42:05.833Z,947.44
2022-12-08T04:43:09.636Z,947.45
2022-12-08T04:44:11.662Z,947.46
2022-12-08T04:45:13.640Z,947.49
2022-12-08T04:46:15.699Z,947.47
2022-12-08T04:47:18.743Z,947.46
2022-12-08T04:48:20.642Z,947.42
2022-12-08T04:49:22.643Z,947.42
2022-12-08T04:50:24.645Z,947.39
2022-12-08T04:51:26.660Z,947.38
2022-12-08T04:52:28.824Z,947.4
2022-12-08T04:53:30.648Z,947.41
2022-12-08T04:54:32.643Z,947.37
2022-12-08T04:55:34.661Z,947.38
2022-12-08T04:56:36.643Z,947.38
2022-12-08T04:57:38.686Z,947.44
2022-12-08T04:58:40.649Z,947.42
2022-12-08T04:59:43.653Z,947.41
2022-12-08T05:00:45.655Z,947.42
2022-12-08T05:01:47.747Z,947.41
2022-12-08T05:02:49.881Z,947.39
2022-12-08T05:03:51.645Z,947.4
2022-12-08T05:04:53.661Z,947.45
2022-12-08T05:05:55.657Z,947.46
2022-12-08T05:06:57.649Z,947.45
2022-12-08T05:07:59.759Z,947.46
2022-12-08T05:09:01.671Z,947.47
2022-12-08T05:10:03.948Z,947.43
2022-12-08T05:11:05.677Z,947.44
2022-12-08T05:12:09.656Z,947.41
2022-12-08T05:13:11.672Z,947.45
2022-12-08T05:14:13.663Z,947.43
2022-12-08T05:15:15.662Z,947.4
2022-12-08T05:16:17.796Z,947.37
2022-12-08T05:17:19.665Z,947.38
2022-12-08T05:18:21.715Z,947.39
2022-12-08T05:19:23.660Z,947.39
2022-12-08T05:20:25.661Z,947.37
2022-12-08T05:21:27.670Z,947.39
2022-12-08T05:22:29.664Z,947.38
2022-12-08T05:23:31.722Z,947.39
2022-12-08T05:24:33.672Z,947.39
2022-12-08T05:25:35.671Z,947.35
2022-12-08T05:26:37.675Z,947.36
2022-12-08T05:27:39.673Z,947.34
2022-12-08T05:28:42.750Z,947.34
2022-12-08T05:29:43.687Z,947.33
2022-12-08T05:30:45.675Z,947.35
2022-12-08T05:31:47.785Z,947.38
2022-12-08T05:32:49.750Z,947.38
2022-12-08T05:33:51.694Z,947.42
2022-12-08T05:34:53.676Z,947.43
2022-12-08T05:35:55.674Z,947.43
2022-12-08T05:36:57.681Z,947.43
2022-12-08T05:37:59.677Z,947.45
2022-12-08T05:39:01.688Z,947.42
2022-12-08T05:40:04.153Z,947.42
2022-12-08T05:41:05.695Z,947.41
2022-12-08T05:42:09.685Z,947.43
2022-12-08T05:43:11.721Z,947.41
2022-12-08T05:44:13.688Z,947.4
2022-12-08T05:45:15.685Z,947.43
2022-12-08T05:46:17.722Z,947.43
2022-12-08T05:47:19.679Z,947.46
2022-12-08T05:48:22.678Z,947.39
2022-12-08T05:49:24.717Z,947.39
2022-12-08T05:50:26.692Z,947.39
2022-12-08T05:51:28.689Z,947.41
2022-12-08T05:52:30.697Z,947.39
2022-12-08T05:53:33.685Z,947.39
2022-12-08T05:54:35.686Z,947.39
2022-12-08T05:55:37.690Z,947.36
2022-12-08T05:56:39.685Z,947.37
2022-12-08T05:57:41.680Z,947.37
2022-12-08T05:58:43.685Z,947.39
2022-12-08T05:59:46.693Z,947.35
2022-12-08T06:00:48.686Z,947.37
2022-12-08T06:01:50.721Z,947.36
2022-12-08T06:02:52.785Z,947.34
2022-12-08T06:03:54.871Z,947.35
2022-12-08T06:04:56.690Z,947.33
2022-12-08T06:05:58.698Z,947.33
2022-12-08T06:07:01.198Z,947.32
2022-12-08T06:08:02.764Z,947.32
2022-12-08T06:09:05.740Z,947.28
2022-12-08T06:10:08.698Z,947.33
2022-12-08T06:11:10.702Z,947.31
2022-12-08T06:12:12.693Z,947.25
2022-12-08T06:13:14.705Z,947.27
2022-12-08T06:14:16.716Z,947.25
2022-12-08T06:15:18.681Z,947.24
2022-12-08T06:16:20.776Z,947.24
2022-12-08T06:17:22.694Z,947.23
2022-12-08T06:18:29.694Z,947.27
2022-12-08T06:19:26.719Z,947.27
2022-12-08T06:20:28.701Z,947.22
2022-12-08T06:21:30.709Z,947.23
2022-12-08T06:22:32.705Z,947.22
2022-12-08T06:23:34.711Z,947.28
2022-12-08T06:24:36.744Z,947.24
2022-12-08T06:25:38.693Z,947.24
2022-12-08T06:26:40.708Z,947.25
2022-12-08T06:27:42.708Z,947.23
2022-12-08T06:28:44.711Z,947.24
2022-12-08T06:29:46.752Z,947.24
2022-12-08T06:30:48.726Z,947.22
2022-12-08T06:31:50.742Z,947.27
2022-12-08T06:32:52.772Z,947.25
2022-12-08T06:33:54.711Z,947.24
2022-12-08T06:34:56.740Z,947.24
2022-12-08T06:35:59.703Z,947.3
2022-12-08T06:37:01.723Z,947.29
2022-12-08T06:38:03.720Z,947.3
2022-12-08T06:39:07.722Z,947.31
2022-12-08T06:40:09.710Z,947.33
2022-12-08T06:41:11.712Z,947.35
2022-12-08T06:42:13.711Z,947.37
2022-12-08T06:43:15.747Z,947.39
2022-12-08T06:44:17.787Z,947.41
2022-12-08T06:45:19.713Z,947.42
2022-12-08T06:46:21.757Z,947.39
2022-12-08T06:47:26.182Z,947.41
2022-12-08T06:48:25.726Z,947.43
2022-12-08T06:49:28.724Z,947.42
2022-12-08T06:50:30.738Z,947.4
2022-12-08T06:51:32.722Z,947.42
2022-12-08T06:52:40.810Z,947.42
2022-12-08T06:53:37.739Z,947.44
2022-12-08T06:54:39.732Z,947.39
2022-12-08T06:55:58.315Z,947.38
2022-12-08T06:56:43.722Z,947.38
2022-12-08T06:57:45.725Z,947.4
2022-12-08T06:58:52.376Z,947.39
2022-12-08T06:59:49.806Z,947.39
2022-12-08T07:00:51.812Z,947.41
2022-12-08T07:01:53.826Z,947.42
2022-12-08T07:02:55.833Z,947.4
2022-12-08T07:03:57.730Z,947.4
2022-12-08T07:05:01.181Z,947.4
2022-12-08T07:06:04.378Z,947.4
2022-12-08T07:07:05.748Z,947.4
2022-12-08T07:08:08.925Z,947.43
2022-12-08T07:09:10.734Z,947.44
2022-12-08T07:10:12.731Z,947.45
2022-12-08T07:11:20.921Z,947.47
2022-12-08T07:12:17.733Z,947.45
2022-12-08T07:13:19.777Z,947.49
2022-12-08T07:14:21.729Z,947.46
2022-12-08T07:15:23.742Z,947.48
2022-12-08T07:16:25.793Z,947.49
2022-12-08T07:17:27.743Z,947.53
2022-12-08T07:18:29.780Z,947.49
2022-12-08T07:19:31.740Z,947.5
2022-12-08T07:20:33.776Z,947.45
2022-12-08T07:21:35.741Z,947.47
2022-12-08T07:22:37.738Z,947.47
2022-12-08T07:23:40.768Z,947.45
2022-12-08T07:24:42.742Z,947.47
2022-12-08T07:25:44.742Z,947.44
2022-12-08T07:26:46.753Z,947.43
2022-12-08T07:27:48.750Z,947.44
2022-12-08T07:28:50.745Z,947.44
2022-12-08T07:29:52.741Z,947.43
2022-12-08T07:30:54.817Z,947.42
2022-12-08T07:31:56.754Z,947.42
2022-12-08T07:32:58.742Z,947.45
2022-12-08T07:34:01.166Z,947.46
2022-12-08T07:35:02.756Z,947.46
2022-12-08T07:36:05.824Z,947.46
2022-12-08T07:37:09.751Z,947.45
2022-12-08T07:38:12.740Z,947.46
2022-12-08T07:39:14.745Z,947.47
2022-12-08T07:40:16.797Z,947.45
2022-12-08T07:41:18.816Z,947.44
2022-12-08T07:42:20.757Z,947.44
2022-12-08T07:43:22.751Z,947.4
2022-12-08T07:44:24.754Z,947.45
2022-12-08T07:45:31.431Z,947.47
2022-12-08T07:46:28.867Z,947.46
2022-12-08T07:47:31.760Z,947.45
2022-12-08T07:48:33.755Z,947.47
2022-12-08T07:49:35.758Z,947.46
2022-12-08T07:50:37.759Z,947.42
2022-12-08T07:51:39.843Z,947.46
2022-12-08T07:52:41.760Z,947.45
2022-12-08T07:53:47.224Z,947.43
2022-12-08T07:54:45.759Z,947.44
2022-12-08T07:55:47.773Z,947.46
2022-12-08T07:56:49.888Z,947.45
2022-12-08T07:57:51.763Z,947.47
2022-12-08T07:58:53.770Z,947.44
2022-12-08T07:59:55.764Z,947.42
2022-12-08T08:00:57.923Z,947.45
2022-12-08T08:02:21.351Z,947.39
2022-12-08T08:03:02.878Z,947.44
2022-12-08T08:04:05.860Z,947.42
2022-12-08T08:05:08.860Z,947.4
2022-12-08T08:06:10.765Z,947.44
2022-12-08T08:07:12.828Z,947.44
2022-12-08T08:08:14.854Z,947.43
2022-12-08T08:09:16.769Z,947.42
2022-12-08T08:10:18.790Z,947.43
2022-12-08T08:11:21.763Z,947.46
2022-12-08T08:12:31.448Z,947.47
2022-12-08T08:13:24.771Z,947.43
2022-12-08T08:14:26.811Z,947.42
2022-12-08T08:15:28.892Z,947.44
2022-12-08T08:16:36.575Z,947.47
2022-12-08T08:17:32.995Z,947.44
2022-12-08T08:18:34.780Z,947.45
2022-12-08T08:19:36.778Z,947.42
2022-12-08T08:20:38.783Z,947.44
2022-12-08T08:21:45.876Z,947.42
2022-12-08T08:23:44.838Z,947.42
2022-12-08T08:25:48.786Z,947.42
2022-12-08T08:26:50.785Z,947.41
2022-12-08T08:27:52.789Z,947.39
2022-12-08T08:28:54.783Z,947.39
2022-12-08T08:29:56.788Z,947.45
2022-12-08T08:30:58.876Z,947.43
2022-12-08T08:32:01.779Z,947.41
2022-12-08T08:33:03.783Z,947.43
2022-12-08T08:34:05.801Z,947.47
2022-12-08T08:35:08.786Z,947.44
2022-12-08T08:36:10.782Z,947.48
2022-12-08T08:37:13.935Z,947.48
2022-12-08T08:38:15.809Z,947.47
2022-12-08T08:39:17.984Z,947.48
2022-12-08T08:40:20.787Z,947.46
2022-12-08T08:41:22.789Z,947.48
2022-12-08T08:42:24.802Z,947.49
2022-12-08T08:43:26.801Z,947.49
2022-12-08T08:44:29.837Z,947.42
2022-12-08T08:45:31.789Z,947.45
2022-12-08T08:46:33.892Z,947.47
2022-12-08T08:47:36.793Z,947.41
2022-12-08T08:48:38.809Z,947.42
2022-12-08T08:49:41.982Z,947.43
2022-12-08T08:50:43.806Z,947.45
2022-12-08T08:51:45.794Z,947.45
2022-12-08T08:52:47.804Z,947.46
2022-12-08T08:53:50.075Z,947.5
2022-12-08T08:54:51.809Z,947.5
2022-12-08T08:55:53.811Z,947.53
2022-12-08T08:56:55.813Z,947.5
2022-12-08T08:57:57.806Z,947.53
2022-12-08T08:58:59.803Z,947.5
2022-12-08T09:00:02.107Z,947.51
2022-12-08T09:01:03.808Z,947.49
2022-12-08T09:02:09.916Z,947.54
2022-12-08T09:03:13.165Z,947.52
2022-12-08T09:04:13.874Z,947.51
2022-12-08T09:05:28.292Z,947.53
2022-12-08T09:06:17.885Z,947.5
2022-12-08T09:07:19.812Z,947.52
2022-12-08T09:08:21.864Z,947.5
2022-12-08T09:09:23.808Z,947.52
2022-12-08T09:10:25.809Z,947.51
2022-12-08T09:11:27.810Z,947.47
2022-12-08T09:12:29.805Z,947.51
2022-12-08T09:13:31.820Z,947.49
2022-12-08T09:14:33.854Z,947.49
2022-12-08T09:15:35.864Z,947.54
2022-12-08T09:16:42.238Z,947.54
2022-12-08T09:17:39.815Z,947.53
2022-12-08T09:18:41.828Z,947.55
2022-12-08T09:19:43.865Z,947.55
2022-12-08T09:20:45.826Z,947.52
2022-12-08T09:21:47.821Z,947.54
2022-12-08T09:22:50.812Z,947.51
2022-12-08T09:23:52.897Z,947.51
2022-12-08T09:24:54.838Z,947.49
2022-12-08T09:25:56.842Z,947.51
2022-12-08T09:26:59.816Z,947.47
2022-12-08T09:28:01.825Z,947.48
2022-12-08T09:29:05.840Z,947.47
2022-12-08T09:30:08.829Z,947.5
2022-12-08T09:31:10.923Z,947.5
2022-12-08T09:32:12.827Z,947.5
2022-12-08T09:33:14.831Z,947.46
2022-12-08T09:34:16.822Z,947.46
2022-12-08T09:35:18.830Z,947.46
2022-12-08T09:36:20.856Z,947.46
2022-12-08T09:37:22.853Z,947.47
2022-12-08T09:38:24.867Z,947.47
2022-12-08T09:39:26.822Z,947.45
2022-12-08T09:40:28.826Z,947.41
2022-12-08T09:42:33.864Z,947.43
2022-12-08T09:43:35.827Z,947.39
2022-12-08T09:44:37.858Z,947.36
2022-12-08T09:45:39.830Z,947.36
2022-12-08T09:46:41.897Z,947.33
2022-12-08T09:47:43.832Z,947.35
2022-12-08T09:48:45.827Z,947.32
2022-12-08T09:49:47.898Z,947.33
2022-12-08T09:50:49.911Z,947.29
2022-12-08T09:51:51.834Z,947.3
2022-12-08T09:52:53.838Z,947.32
2022-12-08T09:53:55.834Z,947.29
2022-12-08T09:54:57.859Z,947.27
2022-12-08T09:55:59.848Z,947.26
2022-12-08T09:57:01.838Z,947.28
2022-12-08T09:58:03.849Z,947.25
2022-12-08T09:59:05.869Z,947.23
2022-12-08T10:00:09.854Z,947.19
2022-12-08T10:01:11.847Z,947.18
2022-12-08T10:02:49.629Z,947.18
2022-12-08T10:03:49.614Z,947.16
2022-12-08T10:04:49.717Z,947.12
2022-12-08T10:05:49.620Z,947.13
2022-12-08T10:06:49.608Z,947.13
2022-12-08T10:07:49.695Z,947.1
2022-12-08T10:08:49.648Z,947.11
2022-12-08T10:09:49.629Z,947.04
2022-12-08T10:10:49.617Z,947.1
2022-12-08T10:11:49.618Z,947.09
2022-12-08T10:12:49.638Z,947.1
2022-12-08T10:13:49.636Z,947.09
2022-12-08T10:14:49.618Z,947.05
2022-12-08T10:15:49.685Z,947.07
2022-12-08T10:16:49.705Z,947.09
2022-12-08T10:17:49.650Z,947.06
2022-12-08T10:18:50.131Z,947.04
2022-12-08T10:19:51.854Z,947.04
2022-12-08T10:20:53.869Z,947.02
2022-12-08T10:21:55.857Z,946.99
2022-12-08T10:22:58.884Z,947.01
2022-12-08T10:24:01.205Z,946.99
2022-12-08T10:25:02.885Z,947.01
2022-12-08T10:26:05.878Z,946.96
2022-12-08T10:27:08.855Z,947
2022-12-08T10:28:10.865Z,946.97
2022-12-08T10:29:12.853Z,947.01
2022-12-08T10:30:14.883Z,947.03
2022-12-08T10:31:16.959Z,947.02
2022-12-08T10:32:19.861Z,947.03
2022-12-08T10:33:34.437Z,947.01
2022-12-08T10:34:23.870Z,946.97
2022-12-08T10:35:25.863Z,946.96
2022-12-08T10:36:28.861Z,946.95
2022-12-08T10:37:30.866Z,946.92
2022-12-08T10:38:32.867Z,946.9
2022-12-08T10:39:35.873Z,946.88
2022-12-08T10:40:43.872Z,946.92
2022-12-08T10:41:39.877Z,946.94
2022-12-08T10:42:41.871Z,946.92
2022-12-08T10:43:44.871Z,946.89
2022-12-08T10:44:46.870Z,946.89
2022-12-08T10:45:48.870Z,946.89
2022-12-08T10:46:50.918Z,946.9
2022-12-08T10:47:55.541Z,946.89
2022-12-08T10:48:55.926Z,946.84
2022-12-08T10:49:57.873Z,946.83
2022-12-08T10:51:01.196Z,946.84
2022-12-08T10:52:02.874Z,946.82
2022-12-08T10:53:05.889Z,946.8
2022-12-08T10:54:08.873Z,946.84
2022-12-08T10:55:10.876Z,946.81
2022-12-08T10:56:14.067Z,946.79
2022-12-08T10:57:15.873Z,946.8
2022-12-08T10:58:17.884Z,946.81
2022-12-08T10:59:20.892Z,946.81
2022-12-08T11:00:22.874Z,946.78
2022-12-08T11:01:24.957Z,946.79
2022-12-08T11:02:27.011Z,946.73
2022-12-08T11:03:28.886Z,946.8
2022-12-08T11:04:31.881Z,946.77
2022-12-08T11:05:33.882Z,946.76
2022-12-08T11:06:35.884Z,946.77
2022-12-08T11:07:37.913Z,946.74
2022-12-08T11:08:39.888Z,946.72
2022-12-08T11:09:42.937Z,946.73
2022-12-08T11:10:44.898Z,946.7
2022-12-08T11:11:46.917Z,946.69
2022-12-08T11:12:48.890Z,946.68
2022-12-08T11:13:50.906Z,946.67
2022-12-08T11:14:52.925Z,946.68
2022-12-08T11:15:55.939Z,946.65
2022-12-08T11:16:57.968Z,946.67
2022-12-08T11:17:59.890Z,946.63
2022-12-08T11:19:02.907Z,946.61
2022-12-08T11:20:06.359Z,946.62
2022-12-08T11:21:08.895Z,946.6
2022-12-08T11:22:10.891Z,946.6
2022-12-08T11:23:12.900Z,946.59
2022-12-08T11:24:14.909Z,946.57
2022-12-08T11:25:16.911Z,946.59
2022-12-08T11:26:18.892Z,946.59
2022-12-08T11:27:20.982Z,946.6
2022-12-08T11:28:22.897Z,946.6
2022-12-08T11:29:24.898Z,946.59
2022-12-08T11:30:26.941Z,946.57
2022-12-08T11:31:28.971Z,946.54
2022-12-08T11:32:30.903Z,946.52
2022-12-08T11:33:32.902Z,946.51
2022-12-08T11:34:34.901Z,946.5
2022-12-08T11:35:36.933Z,946.55
2022-12-08T11:36:39.904Z,946.5
2022-12-08T11:37:41.912Z,946.45
2022-12-08T11:38:43.937Z,946.48
2022-12-08T11:39:45.909Z,946.46
2022-12-08T11:40:47.922Z,946.47
2022-12-08T11:41:49.988Z,946.46
2022-12-08T11:42:51.945Z,946.43
2022-12-08T11:43:53.914Z,946.44
2022-12-08T11:44:55.909Z,946.42
2022-12-08T11:46:04.571Z,946.39
2022-12-08T11:47:01.173Z,946.44
2022-12-08T11:48:02.935Z,946.39
2022-12-08T11:49:06.921Z,946.42
2022-12-08T11:50:08.904Z,946.41
2022-12-08T11:51:10.940Z,946.4
2022-12-08T11:52:12.922Z,946.39
2022-12-08T11:53:14.918Z,946.39
2022-12-08T11:54:49.712Z,946.36
2022-12-08T11:55:50.172Z,946.4
2022-12-08T11:56:49.698Z,946.4
2022-12-08T11:57:49.749Z,946.35
2022-12-08T11:58:49.698Z,946.38
2022-12-08T11:59:49.708Z,946.4
2022-12-08T12:00:49.689Z,946.37
2022-12-08T12:01:49.749Z,946.35
2022-12-08T12:06:54.916Z,946.35
2022-12-08T12:12:37.882Z,946.36
2022-12-08T12:12:39.292Z,946.36
2022-12-08T12:13:29.165Z,946.34
2022-12-08T12:14:29.211Z,946.36
2022-12-08T12:32:18.641Z,946.33
2022-12-08T12:32:19.109Z,946.34
2022-12-08T12:33:52.658Z,946.25
2022-12-08T12:34:54.645Z,946.27
2022-12-08T12:38:36.170Z,946.26
2022-12-08T12:38:37.718Z,946.21
2022-12-08T12:39:39.711Z,946.16
2022-12-08T12:40:41.706Z,946.19
2022-12-08T12:41:43.700Z,946.14
2022-12-08T12:42:45.708Z,946.2
2022-12-08T12:43:47.717Z,946.2
2022-12-08T12:48:47.488Z,946.2
2022-12-08T12:53:55.024Z,946.13
2022-12-08T12:54:57.002Z,946.16
2022-12-08T12:57:01.250Z,946.16
2022-12-08T12:58:03.261Z,946.11
2022-12-08T12:59:05.290Z,946.14
2022-12-08T13:00:07.792Z,946.11
2022-12-08T13:01:09.310Z,946.07
2022-12-08T13:02:11.311Z,946.09
2022-12-08T13:11:30.199Z,945.92
2022-12-08T13:11:31.849Z,945.9
2022-12-08T13:12:33.854Z,945.91
2022-12-08T13:13:35.860Z,945.89
2022-12-08T13:14:37.851Z,945.89
2022-12-08T13:15:39.856Z,945.9
2022-12-08T13:16:42.086Z,945.9
2022-12-08T13:17:44.880Z,945.92
2022-12-08T13:18:47.857Z,945.91
2022-12-08T13:19:51.885Z,945.91
2022-12-08T13:20:51.860Z,945.88
2022-12-08T13:21:53.873Z,945.87
2022-12-08T13:22:55.878Z,945.83
2022-12-08T13:24:05.425Z,945.87
2022-12-08T13:26:05.437Z,945.84
2022-12-08T13:27:05.477Z,945.87
2022-12-08T13:28:06.870Z,945.84
2022-12-08T13:29:08.857Z,945.81
2022-12-08T13:30:11.871Z,945.83
2022-12-08T13:31:13.953Z,945.82
2022-12-08T13:32:15.876Z,945.81
2022-12-08T13:33:18.960Z,945.82
2022-12-08T13:34:20.892Z,945.81
2022-12-08T13:35:22.875Z,945.79
2022-12-08T13:36:24.875Z,945.8
2022-12-08T13:37:26.925Z,945.8
2022-12-08T13:38:28.867Z,945.79
2022-12-08T13:39:30.872Z,945.83
2022-12-08T13:40:32.870Z,945.87
2022-12-08T13:41:34.945Z,945.86
2022-12-08T13:42:36.914Z,945.86
2022-12-08T13:43:55.585Z,945.85
2022-12-08T13:45:21.336Z,945.87
2022-12-08T13:48:13.672Z,945.91
2022-12-08T13:51:16.142Z,945.9
2022-12-08T13:52:32.921Z,945.91
2022-12-08T13:56:37.497Z,945.92